sensor_id;sensor_type;location;lat;lon;timestamp;pressure;altitude;pressure_sealevel;temperature;humidity
5574;BME280;2563;52.242;7.956;2023-05-02T00:00:15;100215.50;;;11.32;100.00
5574;BME280;2563;52.242;7.956;2023-05-02T00:02:40;100215.56;;;11.31;100.00
5574;BME280;2563;52.242;7.956;2023-05-02T00:05:06;100212.28;;;11.25;100.00
5574;BME280;2563;52.242;7.956;2023-05-02T00:07:32;100205.53;;;11.21;100.00
5574;BME280;2563;52.242;7.956;2023-05-02T00:09:58;100211.53;;;11.22;100.00
5574;BME280;2563;52.242;7.956;2023-05-02T00:12:24;100211.56;;;11.20;100.00
5574;BME280;2563;52.242;7.956;2023-05-02T00:14:50;100209.91;;;11.19;100.00
5574;BME280;2563;52.242;7.956;2023-05-02T00:17:16;100198.75;;;11.19;100.00
5574;BME280;2563;52.242;7.956;2023-05-02T00:19:42;100209.09;;;11.17;100.00
5574;BME280;2563;52.242;7.956;2023-05-02T00:22:08;100207.34;;;11.18;100.00
5574;BME280;2563;52.242;7.956;2023-05-02T00:24:33;100203.06;;;11.18;100.00
5574;BME280;2563;52.242;7.956;2023-05-02T00:26:58;100197.03;;;11.19;100.00
5574;BME280;2563;52.242;7.956;2023-05-02T00:29:24;100193.66;;;11.17;100.00
5574;BME280;2563;52.242;7.956;2023-05-02T00:31:49;100190.19;;;11.18;100.00
5574;BME280;2563;52.242;7.956;2023-05-02T00:34:14;100178.19;;;11.17;100.00
5574;BME280;2563;52.242;7.956;2023-05-02T00:36:40;100180.66;;;11.20;100.00
5574;BME280;2563;52.242;7.956;2023-05-02T00:39:05;100172.09;;;11.20;100.00
5574;BME280;2563;52.242;7.956;2023-05-02T00:41:31;100172.16;;;11.18;100.00
5574;BME280;2563;52.242;7.956;2023-05-02T00:43:56;100169.66;;;11.15;100.00
5574;BME280;2563;52.242;7.956;2023-05-02T00:46:22;100169.66;;;11.15;100.00
5574;BME280;2563;52.242;7.956;2023-05-02T00:48:47;100171.44;;;11.13;100.00
5574;BME280;2563;52.242;7.956;2023-05-02T00:51:12;100179.28;;;11.10;100.00
5574;BME280;2563;52.242;7.956;2023-05-02T00:53:39;100170.53;;;11.16;100.00
5574;BME280;2563;52.242;7.956;2023-05-02T00:56:05;100175.69;;;11.16;100.00
5574;BME280;2563;52.242;7.956;2023-05-02T00:58:31;100175.69;;;11.16;100.00
5574;BME280;2563;52.242;7.956;2023-05-02T01:06:32;100166.94;;;11.20;100.00
5574;BME280;2563;52.242;7.956;2023-05-02T01:14:41;100155.91;;;11.16;100.00
5574;BME280;2563;52.242;7.956;2023-05-02T01:17:11;100159.44;;;11.14;100.00
5574;BME280;2563;52.242;7.956;2023-05-02T01:19:42;100154.31;;;11.12;100.00
5574;BME280;2563;52.242;7.956;2023-05-02T01:22:10;100156.94;;;11.11;100.00
5574;BME280;2563;52.242;7.956;2023-05-02T01:29:49;100149.34;;;11.06;100.00
5574;BME280;2563;52.242;7.956;2023-05-02T01:32:16;100146.78;;;11.06;100.00
5574;BME280;2563;52.242;7.956;2023-05-02T01:34:45;100151.06;;;11.07;100.00
5574;BME280;2563;52.242;7.956;2023-05-02T01:37:11;100151.03;;;11.09;100.00
5574;BME280;2563;52.242;7.956;2023-05-02T01:39:39;100149.34;;;11.06;100.00
5574;BME280;2563;52.242;7.956;2023-05-02T01:42:05;100147.78;;;11.02;100.00
5574;BME280;2563;52.242;7.956;2023-05-02T01:44:31;100154.84;;;10.97;100.00
5574;BME280;2563;52.242;7.956;2023-05-02T01:46:59;100159.88;;;11.00;100.00
5574;BME280;2563;52.242;7.956;2023-05-02T01:49:28;100165.84;;;11.00;100.00
5574;BME280;2563;52.242;7.956;2023-05-02T01:51:54;100171.84;;;11.01;100.00
5574;BME280;2563;52.242;7.956;2023-05-02T01:54:22;100171.84;;;11.01;100.00
5574;BME280;2563;52.242;7.956;2023-05-02T01:56:48;100164.25;;;10.96;100.00
5574;BME280;2563;52.242;7.956;2023-05-02T01:59:18;100173.81;;;10.94;100.00
5574;BME280;2563;52.242;7.956;2023-05-02T02:01:44;100178.03;;;10.95;100.00
5574;BME280;2563;52.242;7.956;2023-05-02T02:04:13;100178.78;;;10.99;100.00
5574;BME280;2563;52.242;7.956;2023-05-02T02:06:41;100182.25;;;10.98;100.00
5574;BME280;2563;52.242;7.956;2023-05-02T02:09:08;100185.81;;;10.94;100.00
5574;BME280;2563;52.242;7.956;2023-05-02T02:11:36;100187.59;;;10.92;100.00
5574;BME280;2563;52.242;7.956;2023-05-02T02:14:16;100191.88;;;10.93;100.00
5574;BME280;2563;52.242;7.956;2023-05-02T02:16:43;100189.38;;;10.90;100.00
5574;BME280;2563;52.242;7.956;2023-05-02T02:19:10;100184.28;;;10.88;100.00
5574;BME280;2563;52.242;7.956;2023-05-02T02:21:38;100184.97;;;10.93;100.00
5574;BME280;2563;52.242;7.956;2023-05-02T02:24:06;100184.25;;;10.90;100.00
5574;BME280;2563;52.242;7.956;2023-05-02T02:26:32;100185.91;;;10.91;100.00
5574;BME280;2563;52.242;7.956;2023-05-02T02:28:59;100193.53;;;10.94;100.00
5574;BME280;2563;52.242;7.956;2023-05-02T02:31:35;100186.56;;;10.97;100.00
5574;BME280;2563;52.242;7.956;2023-05-02T02:34:00;100195.16;;;10.96;100.00
5574;BME280;2563;52.242;7.956;2023-05-02T02:39:03;100190.97;;;10.94;100.00
5574;BME280;2563;52.242;7.956;2023-05-02T02:41:48;100190.09;;;10.95;100.00
5574;BME280;2563;52.242;7.956;2023-05-02T02:44:27;100202.03;;;10.97;100.00
5574;BME280;2563;52.242;7.956;2023-05-02T02:52:09;100199.59;;;10.93;100.00
5574;BME280;2563;52.242;7.956;2023-05-02T02:54:45;100198.78;;;10.91;100.00
5574;BME280;2563;52.242;7.956;2023-05-02T03:02:27;100194.91;;;10.77;100.00
5574;BME280;2563;52.242;7.956;2023-05-02T03:04:56;100195.00;;;10.74;100.00
5574;BME280;2563;52.242;7.956;2023-05-02T03:07:22;100203.63;;;10.73;100.00
5574;BME280;2563;52.242;7.956;2023-05-02T03:09:47;100195.25;;;10.67;100.00
5574;BME280;2563;52.242;7.956;2023-05-02T03:12:13;100203.69;;;10.70;100.00
5574;BME280;2563;52.242;7.956;2023-05-02T03:14:39;100204.88;;;10.60;100.00
5574;BME280;2563;52.242;7.956;2023-05-02T03:17:05;100212.59;;;10.60;100.00
5574;BME280;2563;52.242;7.956;2023-05-02T03:19:38;100218.56;;;10.60;100.00
5574;BME280;2563;52.242;7.956;2023-05-02T03:22:04;100224.47;;;10.64;100.00
5574;BME280;2563;52.242;7.956;2023-05-02T03:24:29;100209.16;;;10.61;100.00
5574;BME280;2563;52.242;7.956;2023-05-02T03:26:56;100203.31;;;10.54;100.00
5574;BME280;2563;52.242;7.956;2023-05-02T03:29:23;100213.63;;;10.54;100.00
5574;BME280;2563;52.242;7.956;2023-05-02T03:31:48;100224.75;;;10.55;100.00
5574;BME280;2563;52.242;7.956;2023-05-02T03:34:14;100226.53;;;10.53;100.00
5574;BME280;2563;52.242;7.956;2023-05-02T03:36:40;100230.84;;;10.52;100.00
5574;BME280;2563;52.242;7.956;2023-05-02T03:39:05;100233.44;;;10.51;100.00
5574;BME280;2563;52.242;7.956;2023-05-02T03:41:31;100241.97;;;10.53;100.00
5574;BME280;2563;52.242;7.956;2023-05-02T03:43:56;100241.28;;;10.46;100.00
5574;BME280;2563;52.242;7.956;2023-05-02T03:46:21;100248.13;;;10.47;100.00
5574;BME280;2563;52.242;7.956;2023-05-02T03:48:47;100260.97;;;10.49;100.00
5574;BME280;2563;52.242;7.956;2023-05-02T03:51:12;100261.81;;;10.49;100.00
5574;BME280;2563;52.242;7.956;2023-05-02T03:53:38;100262.81;;;10.43;100.00
5574;BME280;2563;52.242;7.956;2023-05-02T03:56:04;100266.38;;;10.39;100.00
5574;BME280;2563;52.242;7.956;2023-05-02T03:58:30;100274.09;;;10.39;100.00
5574;BME280;2563;52.242;7.956;2023-05-02T04:00:55;100277.50;;;10.40;100.00
5574;BME280;2563;52.242;7.956;2023-05-02T04:03:21;100281.81;;;10.39;100.00
5574;BME280;2563;52.242;7.956;2023-05-02T04:05:47;100269.31;;;10.24;100.00
5574;BME280;2563;52.242;7.956;2023-05-02T04:08:12;100278.91;;;10.19;100.00
5574;BME280;2563;52.242;7.956;2023-05-02T04:10:38;100289.38;;;10.13;100.00
5574;BME280;2563;52.242;7.956;2023-05-02T04:13:03;100300.50;;;10.13;100.00
5574;BME280;2563;52.242;7.956;2023-05-02T04:15:30;100307.41;;;10.10;100.00
5574;BME280;2563;52.242;7.956;2023-05-02T04:17:58;100312.78;;;10.02;100.00
5574;BME280;2563;52.242;7.956;2023-05-02T04:20:24;100316.25;;;10.01;100.00
5574;BME280;2563;52.242;7.956;2023-05-02T04:22:49;100328.34;;;9.96;100.00
5574;BME280;2563;52.242;7.956;2023-05-02T04:25:15;100321.50;;;9.96;100.00
5574;BME280;2563;52.242;7.956;2023-05-02T04:27:40;100331.81;;;9.95;100.00
5574;BME280;2563;52.242;7.956;2023-05-02T04:30:06;100335.19;;;9.97;100.00
5574;BME280;2563;52.242;7.956;2023-05-02T04:32:32;100341.16;;;9.97;100.00
5574;BME280;2563;52.242;7.956;2023-05-02T04:34:58;100335.88;;;10.04;100.00
5574;BME280;2563;52.242;7.956;2023-05-02T04:37:24;100327.50;;;9.95;100.00
5574;BME280;2563;52.242;7.956;2023-05-02T04:39:49;100331.06;;;9.91;100.00
5574;BME280;2563;52.242;7.956;2023-05-02T04:42:15;100334.38;;;9.95;100.00
5574;BME280;2563;52.242;7.956;2023-05-02T04:44:40;100338.69;;;9.94;100.00
5574;BME280;2563;52.242;7.956;2023-05-02T04:47:05;100332.72;;;9.92;100.00
5574;BME280;2563;52.242;7.956;2023-05-02T04:49:31;100354.91;;;9.96;100.00
5574;BME280;2563;52.242;7.956;2023-05-02T04:51:56;100357.31;;;10.02;100.00
5574;BME280;2563;52.242;7.956;2023-05-02T04:54:22;100345.44;;;9.98;100.00
5574;BME280;2563;52.242;7.956;2023-05-02T04:56:47;100342.94;;;9.95;100.00
5574;BME280;2563;52.242;7.956;2023-05-02T04:59:12;100353.22;;;9.95;100.00
5574;BME280;2563;52.242;7.956;2023-05-02T05:01:38;100356.69;;;9.94;100.00
5574;BME280;2563;52.242;7.956;2023-05-02T05:04:03;100355.88;;;9.92;100.00
5574;BME280;2563;52.242;7.956;2023-05-02T05:06:29;100350.88;;;9.86;100.00
5574;BME280;2563;52.242;7.956;2023-05-02T05:08:55;100353.53;;;9.83;100.00
5574;BME280;2563;52.242;7.956;2023-05-02T05:11:21;100355.22;;;9.84;100.00
5574;BME280;2563;52.242;7.956;2023-05-02T05:13:47;100368.84;;;9.88;100.00
5574;BME280;2563;52.242;7.956;2023-05-02T05:16:12;100365.44;;;9.87;100.00
5574;BME280;2563;52.242;7.956;2023-05-02T05:18:38;100363.25;;;9.70;100.00
5574;BME280;2563;52.242;7.956;2023-05-02T05:21:07;100357.09;;;9.40;100.00
5574;BME280;2563;52.242;7.956;2023-05-02T05:23:33;100363.72;;;9.11;100.00
5574;BME280;2563;52.242;7.956;2023-05-02T05:26:11;100363.28;;;8.91;100.00
5574;BME280;2563;52.242;7.956;2023-05-02T05:28:37;100374.66;;;8.78;100.00
5574;BME280;2563;52.242;7.956;2023-05-02T05:31:13;100399.66;;;8.69;100.00
5574;BME280;2563;52.242;7.956;2023-05-02T05:33:41;100404.84;;;8.65;100.00
5574;BME280;2563;52.242;7.956;2023-05-02T05:36:12;100411.81;;;8.58;100.00
5574;BME280;2563;52.242;7.956;2023-05-02T05:38:39;100426.31;;;8.61;100.00
5574;BME280;2563;52.242;7.956;2023-05-02T05:41:04;100430.63;;;8.59;100.00
5574;BME280;2563;52.242;7.956;2023-05-02T05:43:31;100436.72;;;8.53;100.00
5574;BME280;2563;52.242;7.956;2023-05-02T05:45:57;100447.81;;;8.52;100.00
5574;BME280;2563;52.242;7.956;2023-05-02T05:48:22;100447.13;;;8.44;100.00
5574;BME280;2563;52.242;7.956;2023-05-02T05:50:48;100458.28;;;8.41;100.00
5574;BME280;2563;52.242;7.956;2023-05-02T05:53:14;100479.56;;;8.48;100.00
5574;BME280;2563;52.242;7.956;2023-05-02T05:55:40;100460.34;;;8.18;100.00
5574;BME280;2563;52.242;7.956;2023-05-02T05:58:06;100476.63;;;8.15;100.00
5574;BME280;2563;52.242;7.956;2023-05-02T06:00:36;100490.41;;;8.08;100.00
5574;BME280;2563;52.242;7.956;2023-05-02T06:03:01;100494.81;;;8.00;100.00
5574;BME280;2563;52.242;7.956;2023-05-02T06:05:27;100482.31;;;7.75;100.00
5574;BME280;2563;52.242;7.956;2023-05-02T06:07:53;100504.72;;;7.61;100.00
5574;BME280;2563;52.242;7.956;2023-05-02T06:10:18;100526.91;;;7.62;100.00
5574;BME280;2563;52.242;7.956;2023-05-02T06:12:44;100532.88;;;7.61;100.00
5574;BME280;2563;52.242;7.956;2023-05-02T06:15:09;100540.56;;;7.61;100.00
5574;BME280;2563;52.242;7.956;2023-05-02T06:17:35;100569.38;;;7.81;100.00
5574;BME280;2563;52.242;7.956;2023-05-02T06:20:00;100562.50;;;7.83;100.00
5574;BME280;2563;52.242;7.956;2023-05-02T06:22:25;100565.13;;;7.79;100.00
5574;BME280;2563;52.242;7.956;2023-05-02T06:24:51;100578.56;;;7.96;100.00
5574;BME280;2563;52.242;7.956;2023-05-02T06:27:16;100585.31;;;8.03;100.00
5574;BME280;2563;52.242;7.956;2023-05-02T06:29:41;100565.75;;;7.98;100.00
5574;BME280;2563;52.242;7.956;2023-05-02T06:32:07;100599.63;;;8.18;100.00
5574;BME280;2563;52.242;7.956;2023-05-02T06:34:34;100585.97;;;8.19;100.00
5574;BME280;2563;52.242;7.956;2023-05-02T06:36:59;100592.81;;;8.17;100.00
5574;BME280;2563;52.242;7.956;2023-05-02T06:39:24;100589.41;;;8.15;100.00
5574;BME280;2563;52.242;7.956;2023-05-02T06:41:50;100586.25;;;7.95;100.00
5574;BME280;2563;52.242;7.956;2023-05-02T06:44:15;100601.50;;;8.07;100.00
5574;BME280;2563;52.242;7.956;2023-05-02T06:46:42;100603.09;;;8.16;100.00
5574;BME280;2563;52.242;7.956;2023-05-02T06:49:07;100578.44;;;8.05;100.00
5574;BME280;2563;52.242;7.956;2023-05-02T06:51:32;100599.91;;;7.97;100.00
5574;BME280;2563;52.242;7.956;2023-05-02T06:53:58;100602.47;;;7.98;100.00
5574;BME280;2563;52.242;7.956;2023-05-02T06:56:23;100615.13;;;8.10;100.00
5574;BME280;2563;52.242;7.956;2023-05-02T06:58:52;100593.09;;;7.96;100.00
5574;BME280;2563;52.242;7.956;2023-05-02T07:01:17;100600.00;;;7.91;100.00
5574;BME280;2563;52.242;7.956;2023-05-02T07:03:43;100600.84;;;7.93;100.00
5574;BME280;2563;52.242;7.956;2023-05-02T07:06:08;100597.56;;;7.81;100.00
5574;BME280;2563;52.242;7.956;2023-05-02T07:08:34;100623.06;;;7.91;100.00
5574;BME280;2563;52.242;7.956;2023-05-02T07:10:59;100609.41;;;7.88;100.00
5574;BME280;2563;52.242;7.956;2023-05-02T07:13:25;100627.31;;;7.93;100.00
5574;BME280;2563;52.242;7.956;2023-05-02T07:15:50;100636.53;;;8.06;100.00
5574;BME280;2563;52.242;7.956;2023-05-02T07:18:16;100648.44;;;8.12;100.00
5574;BME280;2563;52.242;7.956;2023-05-02T07:20:41;100650.97;;;8.14;100.00
5574;BME280;2563;52.242;7.956;2023-05-02T07:23:07;100638.25;;;8.07;100.00
5574;BME280;2563;52.242;7.956;2023-05-02T07:25:33;100655.19;;;8.18;100.00
5574;BME280;2563;52.242;7.956;2023-05-02T07:27:59;100644.94;;;8.19;100.00
5574;BME280;2563;52.242;7.956;2023-05-02T07:30:24;100633.09;;;8.07;100.00
5574;BME280;2563;52.242;7.956;2023-05-02T07:32:49;100644.25;;;8.02;100.00
5574;BME280;2563;52.242;7.956;2023-05-02T07:35:15;100675.59;;;8.25;100.00
5574;BME280;2563;52.242;7.956;2023-05-02T07:37:41;100668.72;;;8.29;100.00
5574;BME280;2563;52.242;7.956;2023-05-02T07:40:07;100683.03;;;8.47;100.00
5574;BME280;2563;52.242;7.956;2023-05-02T07:42:33;100696.41;;;8.70;100.00
5574;BME280;2563;52.242;7.956;2023-05-02T07:44:59;100695.19;;;8.96;100.00
5574;BME280;2563;52.242;7.956;2023-05-02T07:47:24;100694.81;;;9.21;100.00
5574;BME280;2563;52.242;7.956;2023-05-02T07:49:54;100689.59;;;9.24;100.00
5574;BME280;2563;52.242;7.956;2023-05-02T07:52:20;100666.91;;;8.99;100.00
5574;BME280;2563;52.242;7.956;2023-05-02T07:54:49;100667.84;;;8.93;100.00
5574;BME280;2563;52.242;7.956;2023-05-02T07:57:14;100694.72;;;8.69;100.00
5574;BME280;2563;52.242;7.956;2023-05-02T07:59:40;100725.88;;;9.05;100.00
5574;BME280;2563;52.242;7.956;2023-05-02T08:02:06;100728.38;;;9.08;100.00
5574;BME280;2563;52.242;7.956;2023-05-02T08:04:31;100730.25;;;8.97;100.00
5574;BME280;2563;52.242;7.956;2023-05-02T08:06:56;100781.47;;;9.06;100.00
5574;BME280;2563;52.242;7.956;2023-05-02T08:09:22;100804.41;;;9.20;100.00
5574;BME280;2563;52.242;7.956;2023-05-02T08:11:47;100817.03;;;9.34;100.00
5574;BME280;2563;52.242;7.956;2023-05-02T08:14:14;100842.56;;;9.43;100.00
5574;BME280;2563;52.242;7.956;2023-05-02T08:16:40;100809.72;;;9.05;100.00
5574;BME280;2563;52.242;7.956;2023-05-02T08:19:05;100872.19;;;9.08;100.00
5574;BME280;2563;52.242;7.956;2023-05-02T08:21:31;100907.03;;;9.26;100.00
5574;BME280;2563;52.242;7.956;2023-05-02T08:23:57;100908.81;;;9.21;100.00
5574;BME280;2563;52.242;7.956;2023-05-02T08:26:23;100920.19;;;9.00;100.00
5574;BME280;2563;52.242;7.956;2023-05-02T08:28:50;100994.41;;;9.22;100.00
5574;BME280;2563;52.242;7.956;2023-05-02T08:31:15;100986.00;;;9.10;100.00
5574;BME280;2563;52.242;7.956;2023-05-02T08:33:40;101039.78;;;9.23;100.00
5574;BME280;2563;52.242;7.956;2023-05-02T08:36:13;101051.03;;;9.11;100.00
5574;BME280;2563;52.242;7.956;2023-05-02T08:38:42;101062.25;;;9.05;100.00
5574;BME280;2563;52.242;7.956;2023-05-02T08:41:15;101118.59;;;9.21;100.00
5574;BME280;2563;52.242;7.956;2023-05-02T08:43:47;101128.91;;;9.14;100.00
5574;BME280;2563;52.242;7.956;2023-05-02T08:46:14;101143.47;;;9.15;100.00
5574;BME280;2563;52.242;7.956;2023-05-02T08:48:41;101150.44;;;9.03;100.00
5574;BME280;2563;52.242;7.956;2023-05-02T08:51:09;101171.88;;;8.94;100.00
5574;BME280;2563;52.242;7.956;2023-05-02T08:53:35;101209.50;;;8.95;100.00
5574;BME280;2563;52.242;7.956;2023-05-02T08:56:01;101213.00;;;8.91;100.00
5574;BME280;2563;52.242;7.956;2023-05-02T08:58:27;101250.66;;;8.86;100.00
5574;BME280;2563;52.242;7.956;2023-05-02T09:00:54;101296.00;;;8.90;100.00
5574;BME280;2563;52.242;7.956;2023-05-02T09:03:31;101350.56;;;9.26;100.00
5574;BME280;2563;52.242;7.956;2023-05-02T09:06:10;101384.69;;;9.51;100.00
5574;BME280;2563;52.242;7.956;2023-05-02T09:08:39;101409.38;;;9.75;100.00
5574;BME280;2563;52.242;7.956;2023-05-02T09:11:06;101434.84;;;10.09;100.00
5574;BME280;2563;52.242;7.956;2023-05-02T09:13:40;101384.41;;;9.91;100.00
5574;BME280;2563;52.242;7.956;2023-05-02T09:16:10;101396.47;;;9.81;100.00
5574;BME280;2563;52.242;7.956;2023-05-02T09:18:37;101402.56;;;9.65;100.00
5574;BME280;2563;52.242;7.956;2023-05-02T09:21:16;101435.19;;;9.59;100.00
5574;BME280;2563;52.242;7.956;2023-05-02T09:23:50;101463.47;;;9.58;100.00
5574;BME280;2563;52.242;7.956;2023-05-02T09:28:46;101539.63;;;9.76;100.00
5574;BME280;2563;52.242;7.956;2023-05-02T09:31:14;101579.81;;;9.95;100.00
5574;BME280;2563;52.242;7.956;2023-05-02T09:33:40;101569.53;;;9.97;100.00
5574;BME280;2563;52.242;7.956;2023-05-02T09:36:07;101567.81;;;9.99;100.00
5574;BME280;2563;52.242;7.956;2023-05-02T09:38:35;101604.59;;;10.12;100.00
5574;BME280;2563;52.242;7.956;2023-05-02T09:41:00;101584.94;;;10.00;100.00
5574;BME280;2563;52.242;7.956;2023-05-02T09:43:28;101629.47;;;10.16;100.00
5574;BME280;2563;52.242;7.956;2023-05-02T09:48:22;101609.50;;;10.58;100.00
5574;BME280;2563;52.242;7.956;2023-05-02T09:50:48;101645.47;;;10.69;100.00
5574;BME280;2563;52.242;7.956;2023-05-02T09:53:13;101575.38;;;10.22;100.00
5574;BME280;2563;52.242;7.956;2023-05-02T09:55:39;101578.97;;;9.99;100.00
5574;BME280;2563;52.242;7.956;2023-05-02T09:58:04;101597.03;;;9.84;100.00
5574;BME280;2563;52.242;7.956;2023-05-02T10:00:43;101600.44;;;9.82;100.00
5574;BME280;2563;52.242;7.956;2023-05-02T10:03:09;101662.13;;;9.98;100.00
5574;BME280;2563;52.242;7.956;2023-05-02T10:05:38;101646.66;;;10.03;100.00
5574;BME280;2563;52.242;7.956;2023-05-02T10:08:05;101686.97;;;10.09;100.00
5574;BME280;2563;52.242;7.956;2023-05-02T10:10:32;101690.31;;;10.25;100.00
5574;BME280;2563;52.242;7.956;2023-05-02T10:13:00;101722.06;;;10.31;100.00
5574;BME280;2563;52.242;7.956;2023-05-02T10:15:32;101704.06;;;10.28;100.00
5574;BME280;2563;52.242;7.956;2023-05-02T10:17:59;101760.63;;;10.40;100.00
5574;BME280;2563;52.242;7.956;2023-05-02T10:20:31;101731.44;;;10.45;100.00
5574;BME280;2563;52.242;7.956;2023-05-02T10:22:59;101731.47;;;10.38;100.00
5574;BME280;2563;52.242;7.956;2023-05-02T10:25:25;101734.88;;;10.47;100.00
5574;BME280;2563;52.242;7.956;2023-05-02T10:27:51;101758.84;;;10.53;100.00
5574;BME280;2563;52.242;7.956;2023-05-02T10:30:17;101796.50;;;10.80;100.00
5574;BME280;2563;52.242;7.956;2023-05-02T10:32:46;101736.44;;;10.72;100.00
5574;BME280;2563;52.242;7.956;2023-05-02T10:35:12;101716.75;;;10.60;100.00
5574;BME280;2563;52.242;7.956;2023-05-02T10:37:38;101766.44;;;10.82;100.00
5574;BME280;2563;52.242;7.956;2023-05-02T10:40:09;101800.59;;;11.18;100.00
5574;BME280;2563;52.242;7.956;2023-05-02T10:42:43;101831.34;;;11.41;100.00
5574;BME280;2563;52.242;7.956;2023-05-02T10:45:33;101806.94;;;11.87;100.00
5574;BME280;2563;52.242;7.956;2023-05-02T10:48:23;101834.13;;;12.22;100.00
5574;BME280;2563;52.242;7.956;2023-05-02T10:50:57;101788.00;;;12.64;100.00
5574;BME280;2563;52.242;7.956;2023-05-02T10:56:11;101719.75;;;12.17;100.00
5574;BME280;2563;52.242;7.956;2023-05-02T10:58:38;101727.50;;;12.17;100.00
5574;BME280;2563;52.242;7.956;2023-05-02T11:04:10;101765.59;;;12.67;100.00
5574;BME280;2563;52.242;7.956;2023-05-02T11:11:47;101712.53;;;12.40;100.00
5574;BME280;2563;52.242;7.956;2023-05-02T11:22:31;101681.44;;;13.07;100.00
5574;BME280;2563;52.242;7.956;2023-05-02T11:24:57;101724.53;;;13.08;100.00
5574;BME280;2563;52.242;7.956;2023-05-02T11:35:24;101640.88;;;12.56;100.00
5574;BME280;2563;52.242;7.956;2023-05-02T11:38:09;101664.91;;;12.61;100.00
5574;BME280;2563;52.242;7.956;2023-05-02T11:40:35;101703.94;;;12.40;100.00
5574;BME280;2563;52.242;7.956;2023-05-02T11:43:14;101729.31;;;12.75;100.00
5574;BME280;2563;52.242;7.956;2023-05-02T11:45:40;101681.19;;;12.68;100.00
5574;BME280;2563;52.242;7.956;2023-05-02T11:48:10;101707.69;;;12.81;100.00
5574;BME280;2563;52.242;7.956;2023-05-02T11:50:44;101626.66;;;12.26;100.00
5574;BME280;2563;52.242;7.956;2023-05-02T11:53:11;101683.56;;;12.20;100.00
5574;BME280;2563;52.242;7.956;2023-05-02T11:55:43;101702.38;;;12.31;100.00
5574;BME280;2563;52.242;7.956;2023-05-02T11:58:14;101689.66;;;12.14;100.00
5574;BME280;2563;52.242;7.956;2023-05-02T12:00:41;101754.53;;;12.56;100.00
5574;BME280;2563;52.242;7.956;2023-05-02T12:03:21;101750.75;;;12.82;100.00
5574;BME280;2563;52.242;7.956;2023-05-02T12:05:47;101764.06;;;13.13;100.00
5574;BME280;2563;52.242;7.956;2023-05-02T12:08:26;101773.28;;;13.32;100.00
5574;BME280;2563;52.242;7.956;2023-05-02T12:10:53;101747.94;;;13.53;100.00
5574;BME280;2563;52.242;7.956;2023-05-02T12:13:20;101749.56;;;13.60;100.00
5574;BME280;2563;52.242;7.956;2023-05-02T12:15:47;101753.38;;;13.86;100.00
5574;BME280;2563;52.242;7.956;2023-05-02T12:18:13;101769.59;;;13.95;100.00
5574;BME280;2563;52.242;7.956;2023-05-02T12:20:39;101718.09;;;13.33;100.00
5574;BME280;2563;52.242;7.956;2023-05-02T12:23:05;101709.94;;;13.04;100.00
5574;BME280;2563;52.242;7.956;2023-05-02T12:25:41;101757.81;;;13.26;100.00
5574;BME280;2563;52.242;7.956;2023-05-02T12:28:07;101754.44;;;13.24;100.00
5574;BME280;2563;52.242;7.956;2023-05-02T12:30:33;101709.59;;;12.69;100.00
5574;BME280;2563;52.242;7.956;2023-05-02T12:33:00;101789.09;;;13.09;100.00
5574;BME280;2563;52.242;7.956;2023-05-02T12:35:27;101792.31;;;13.25;100.00
5574;BME280;2563;52.242;7.956;2023-05-02T12:37:53;101779.88;;;13.50;100.00
5574;BME280;2563;52.242;7.956;2023-05-02T12:40:20;101769.19;;;13.16;100.00
5574;BME280;2563;52.242;7.956;2023-05-02T12:43:03;101810.84;;;13.55;100.00
5574;BME280;2563;52.242;7.956;2023-05-02T12:45:30;101778.28;;;12.83;100.00
5574;BME280;2563;52.242;7.956;2023-05-02T12:50:41;101828.84;;;13.63;100.00
5574;BME280;2563;52.242;7.956;2023-05-02T12:53:07;101815.16;;;13.56;100.00
5574;BME280;2563;52.242;7.956;2023-05-02T12:55:32;101826.22;;;13.64;100.00
5574;BME280;2563;52.242;7.956;2023-05-02T12:58:06;101831.09;;;13.82;100.00
5574;BME280;2563;52.242;7.956;2023-05-02T13:00:34;101812.44;;;13.62;100.00
5574;BME280;2563;52.242;7.956;2023-05-02T13:03:00;101846.72;;;14.24;100.00
5574;BME280;2563;52.242;7.956;2023-05-02T13:05:26;101875.28;;;15.86;100.00
5574;BME280;2563;52.242;7.956;2023-05-02T13:07:51;101817.63;;;14.58;100.00
5574;BME280;2563;52.242;7.956;2023-05-02T13:10:17;101827.81;;;14.21;100.00
5574;BME280;2563;52.242;7.956;2023-05-02T13:12:46;101828.56;;;13.22;100.00
5574;BME280;2563;52.242;7.956;2023-05-02T13:15:12;101843.22;;;13.22;100.00
5574;BME280;2563;52.242;7.956;2023-05-02T13:17:38;101833.28;;;12.92;100.00
5574;BME280;2563;52.242;7.956;2023-05-02T13:20:04;101856.09;;;13.29;100.00
5574;BME280;2563;52.242;7.956;2023-05-02T13:22:29;101866.06;;;13.52;100.00
5574;BME280;2563;52.242;7.956;2023-05-02T13:24:55;101871.66;;;13.80;100.00
5574;BME280;2563;52.242;7.956;2023-05-02T13:27:23;101868.72;;;13.49;100.00
5574;BME280;2563;52.242;7.956;2023-05-02T13:29:49;101887.06;;;13.90;100.00
5574;BME280;2563;52.242;7.956;2023-05-02T13:32:15;101866.31;;;13.38;100.00
5574;BME280;2563;52.242;7.956;2023-05-02T13:34:41;101877.06;;;13.05;100.00
5574;BME280;2563;52.242;7.956;2023-05-02T13:37:06;101880.84;;;12.77;100.00
5574;BME280;2563;52.242;7.956;2023-05-02T13:39:32;101884.06;;;12.95;100.00
5574;BME280;2563;52.242;7.956;2023-05-02T13:41:57;101896.88;;;13.07;100.00
5574;BME280;2563;52.242;7.956;2023-05-02T13:44:23;101900.94;;;13.24;100.00
5574;BME280;2563;52.242;7.956;2023-05-02T13:46:48;101923.56;;;14.74;100.00
5574;BME280;2563;52.242;7.956;2023-05-02T13:49:13;101930.75;;;15.82;100.00
5574;BME280;2563;52.242;7.956;2023-05-02T13:51:39;101910.81;;;15.47;100.00
5574;BME280;2563;52.242;7.956;2023-05-02T13:54:04;101909.41;;;16.07;100.00
5574;BME280;2563;52.242;7.956;2023-05-02T13:56:30;101906.28;;;15.92;100.00
5574;BME280;2563;52.242;7.956;2023-05-02T13:58:55;101885.59;;;14.73;100.00
5574;BME280;2563;52.242;7.956;2023-05-02T14:01:21;101895.13;;;14.71;100.00
5574;BME280;2563;52.242;7.956;2023-05-02T14:03:46;101888.28;;;14.66;100.00
5574;BME280;2563;52.242;7.956;2023-05-02T14:06:11;101887.56;;;14.10;100.00
5574;BME280;2563;52.242;7.956;2023-05-02T14:08:37;101885.41;;;14.34;100.00